sensor_id;sensor_type;location;lat;lon;timestamp;P1;durP1;ratioP1;P2;durP2;ratioP2
47239;SDS011;32978;53.586;10.052;2023-11-21T00:00:11;14.13;;;11.88;;
47239;SDS011;32978;53.586;10.052;2023-11-21T00:05:09;18.67;;;12.75;;
47239;SDS011;32978;53.586;10.052;2023-11-21T00:10:07;13.82;;;11.57;;
47239;SDS011;32978;53.586;10.052;2023-11-21T00:15:05;12.02;;;10.38;;
47239;SDS011;32978;53.586;10.052;2023-11-21T00:20:07;11.73;;;10.52;;
47239;SDS011;32978;53.586;10.052;2023-11-21T00:25:03;13.55;;;11.93;;
47239;SDS011;32978;53.586;10.052;2023-11-21T00:30:00;16.23;;;12.95;;
47239;SDS011;32978;53.586;10.052;2023-11-21T00:34:56;16.45;;;12.45;;
47239;SDS011;32978;53.586;10.052;2023-11-21T00:39:52;16.98;;;14.35;;
47239;SDS011;32978;53.586;10.052;2023-11-21T00:44:49;18.88;;;14.93;;
47239;SDS011;32978;53.586;10.052;2023-11-21T00:49:45;18.40;;;13.40;;
47239;SDS011;32978;53.586;10.052;2023-11-21T00:54:42;20.85;;;15.60;;
47239;SDS011;32978;53.586;10.052;2023-11-21T00:59:38;21.75;;;16.17;;
47239;SDS011;32978;53.586;10.052;2023-11-21T01:04:35;22.73;;;16.67;;
47239;SDS011;32978;53.586;10.052;2023-11-21T01:09:31;28.15;;;18.42;;
47239;SDS011;32978;53.586;10.052;2023-11-21T01:14:27;22.85;;;17.70;;
47239;SDS011;32978;53.586;10.052;2023-11-21T01:19:24;27.17;;;19.00;;
47239;SDS011;32978;53.586;10.052;2023-11-21T01:24:20;21.80;;;16.00;;
47239;SDS011;32978;53.586;10.052;2023-11-21T01:29:16;23.08;;;15.73;;
47239;SDS011;32978;53.586;10.052;2023-11-21T01:34:13;22.38;;;15.52;;
47239;SDS011;32978;53.586;10.052;2023-11-21T01:39:10;19.95;;;15.18;;
47239;SDS011;32978;53.586;10.052;2023-11-21T01:44:11;18.75;;;14.32;;
47239;SDS011;32978;53.586;10.052;2023-11-21T01:49:09;22.80;;;14.77;;
47239;SDS011;32978;53.586;10.052;2023-11-21T01:54:06;13.57;;;12.13;;
47239;SDS011;32978;53.586;10.052;2023-11-21T01:59:14;13.43;;;11.85;;
47239;SDS011;32978;53.586;10.052;2023-11-21T02:04:13;15.52;;;12.60;;
47239;SDS011;32978;53.586;10.052;2023-11-21T02:09:09;16.00;;;12.52;;
47239;SDS011;32978;53.586;10.052;2023-11-21T02:14:06;15.30;;;11.82;;
47239;SDS011;32978;53.586;10.052;2023-11-21T02:19:07;15.80;;;12.75;;
47239;SDS011;32978;53.586;10.052;2023-11-21T02:24:06;18.30;;;12.05;;
47239;SDS011;32978;53.586;10.052;2023-11-21T02:29:05;18.02;;;10.98;;
47239;SDS011;32978;53.586;10.052;2023-11-21T02:34:27;13.63;;;11.52;;
47239;SDS011;32978;53.586;10.052;2023-11-21T02:39:23;12.85;;;11.20;;
47239;SDS011;32978;53.586;10.052;2023-11-21T02:44:20;12.07;;;10.60;;
47239;SDS011;32978;53.586;10.052;2023-11-21T02:49:16;14.02;;;11.48;;
47239;SDS011;32978;53.586;10.052;2023-11-21T02:54:13;15.02;;;11.40;;
47239;SDS011;32978;53.586;10.052;2023-11-21T02:59:10;14.98;;;12.18;;
47239;SDS011;32978;53.586;10.052;2023-11-21T03:04:07;12.60;;;11.00;;
47239;SDS011;32978;53.586;10.052;2023-11-21T03:09:03;12.43;;;10.93;;
47239;SDS011;32978;53.586;10.052;2023-11-21T03:13:59;13.45;;;11.90;;
47239;SDS011;32978;53.586;10.052;2023-11-21T03:18:56;14.15;;;11.27;;
47239;SDS011;32978;53.586;10.052;2023-11-21T03:23:52;14.75;;;11.77;;
47239;SDS011;32978;53.586;10.052;2023-11-21T03:28:49;16.85;;;11.45;;
47239;SDS011;32978;53.586;10.052;2023-11-21T03:33:45;16.00;;;11.38;;
47239;SDS011;32978;53.586;10.052;2023-11-21T03:38:41;18.58;;;11.90;;
47239;SDS011;32978;53.586;10.052;2023-11-21T03:43:38;13.27;;;11.10;;
47239;SDS011;32978;53.586;10.052;2023-11-21T03:48:34;14.75;;;11.02;;
47239;SDS011;32978;53.586;10.052;2023-11-21T03:53:31;13.73;;;10.90;;
47239;SDS011;32978;53.586;10.052;2023-11-21T03:58:27;14.65;;;11.38;;
47239;SDS011;32978;53.586;10.052;2023-11-21T04:03:24;13.75;;;11.40;;
47239;SDS011;32978;53.586;10.052;2023-11-21T04:08:20;14.52;;;12.88;;
47239;SDS011;32978;53.586;10.052;2023-11-21T04:13:16;14.07;;;10.93;;
47239;SDS011;32978;53.586;10.052;2023-11-21T04:18:13;16.33;;;12.40;;
47239;SDS011;32978;53.586;10.052;2023-11-21T04:23:10;17.25;;;13.23;;
47239;SDS011;32978;53.586;10.052;2023-11-21T04:28:06;14.32;;;12.02;;
47239;SDS011;32978;53.586;10.052;2023-11-21T04:33:03;15.38;;;12.57;;
47239;SDS011;32978;53.586;10.052;2023-11-21T04:37:59;14.20;;;12.55;;
47239;SDS011;32978;53.586;10.052;2023-11-21T04:42:55;15.07;;;12.82;;
47239;SDS011;32978;53.586;10.052;2023-11-21T04:47:53;13.95;;;11.77;;
47239;SDS011;32978;53.586;10.052;2023-11-21T04:52:49;17.33;;;13.45;;
47239;SDS011;32978;53.586;10.052;2023-11-21T04:57:46;16.02;;;13.40;;
47239;SDS011;32978;53.586;10.052;2023-11-21T05:02:43;15.10;;;12.48;;
47239;SDS011;32978;53.586;10.052;2023-11-21T05:07:40;13.85;;;12.35;;
47239;SDS011;32978;53.586;10.052;2023-11-21T05:12:37;18.90;;;12.88;;
47239;SDS011;32978;53.586;10.052;2023-11-21T05:17:34;15.13;;;13.30;;
47239;SDS011;32978;53.586;10.052;2023-11-21T05:22:31;14.20;;;12.43;;
47239;SDS011;32978;53.586;10.052;2023-11-21T05:27:28;14.63;;;13.02;;
47239;SDS011;32978;53.586;10.052;2023-11-21T05:32:24;13.98;;;12.55;;
47239;SDS011;32978;53.586;10.052;2023-11-21T05:37:21;14.85;;;12.45;;
47239;SDS011;32978;53.586;10.052;2023-11-21T05:42:17;14.77;;;13.15;;
47239;SDS011;32978;53.586;10.052;2023-11-21T05:47:14;17.50;;;13.25;;
47239;SDS011;32978;53.586;10.052;2023-11-21T05:52:10;14.63;;;12.88;;
47239;SDS011;32978;53.586;10.052;2023-11-21T05:57:07;14.75;;;13.13;;
47239;SDS011;32978;53.586;10.052;2023-11-21T06:02:03;14.95;;;13.35;;
47239;SDS011;32978;53.586;10.052;2023-11-21T06:07:01;15.00;;;13.25;;
47239;SDS011;32978;53.586;10.052;2023-11-21T06:11:57;16.90;;;14.40;;
47239;SDS011;32978;53.586;10.052;2023-11-21T06:16:54;16.90;;;14.45;;
47239;SDS011;32978;53.586;10.052;2023-11-21T06:21:52;16.33;;;13.63;;
47239;SDS011;32978;53.586;10.052;2023-11-21T06:26:50;17.05;;;14.55;;
47239;SDS011;32978;53.586;10.052;2023-11-21T06:31:46;17.25;;;14.25;;
47239;SDS011;32978;53.586;10.052;2023-11-21T06:36:43;16.33;;;14.63;;
47239;SDS011;32978;53.586;10.052;2023-11-21T06:41:39;14.30;;;12.80;;
47239;SDS011;32978;53.586;10.052;2023-11-21T06:46:36;17.08;;;13.38;;
47239;SDS011;32978;53.586;10.052;2023-11-21T06:51:32;15.60;;;12.75;;
47239;SDS011;32978;53.586;10.052;2023-11-21T06:56:28;17.38;;;13.93;;
47239;SDS011;32978;53.586;10.052;2023-11-21T07:01:25;15.77;;;14.02;;
47239;SDS011;32978;53.586;10.052;2023-11-21T07:06:21;15.63;;;14.13;;
47239;SDS011;32978;53.586;10.052;2023-11-21T07:11:18;17.60;;;13.52;;
47239;SDS011;32978;53.586;10.052;2023-11-21T07:16:14;14.30;;;12.80;;
47239;SDS011;32978;53.586;10.052;2023-11-21T07:21:11;15.77;;;13.52;;
47239;SDS011;32978;53.586;10.052;2023-11-21T07:26:08;17.48;;;13.35;;
47239;SDS011;32978;53.586;10.052;2023-11-21T07:31:07;15.88;;;13.90;;
47239;SDS011;32978;53.586;10.052;2023-11-21T07:36:03;14.90;;;13.30;;
47239;SDS011;32978;53.586;10.052;2023-11-21T07:41:00;14.68;;;12.73;;
47239;SDS011;32978;53.586;10.052;2023-11-21T07:45:57;14.35;;;12.85;;
47239;SDS011;32978;53.586;10.052;2023-11-21T07:50:54;13.90;;;12.50;;
47239;SDS011;32978;53.586;10.052;2023-11-21T07:55:51;14.65;;;12.32;;
47239;SDS011;32978;53.586;10.052;2023-11-21T08:00:47;15.00;;;12.88;;
47239;SDS011;32978;53.586;10.052;2023-11-21T08:05:43;13.48;;;12.10;;
47239;SDS011;32978;53.586;10.052;2023-11-21T08:10:47;13.27;;;11.90;;
47239;SDS011;32978;53.586;10.052;2023-11-21T08:15:53;14.45;;;11.63;;
47239;SDS011;32978;53.586;10.052;2023-11-21T08:20:50;12.88;;;10.98;;
47239;SDS011;32978;53.586;10.052;2023-11-21T08:25:46;12.20;;;10.93;;
47239;SDS011;32978;53.586;10.052;2023-11-21T08:30:42;12.10;;;10.15;;
47239;SDS011;32978;53.586;10.052;2023-11-21T08:35:39;13.65;;;9.55;;
47239;SDS011;32978;53.586;10.052;2023-11-21T08:40:35;10.32;;;9.15;;
47239;SDS011;32978;53.586;10.052;2023-11-21T08:45:32;11.40;;;10.20;;
47239;SDS011;32978;53.586;10.052;2023-11-21T08:50:30;11.02;;;9.82;;
47239;SDS011;32978;53.586;10.052;2023-11-21T08:55:26;10.05;;;8.98;;
47239;SDS011;32978;53.586;10.052;2023-11-21T09:00:24;10.27;;;9.18;;
47239;SDS011;32978;53.586;10.052;2023-11-21T09:05:20;10.82;;;9.82;;
47239;SDS011;32978;53.586;10.052;2023-11-21T09:10:17;11.40;;;10.20;;
47239;SDS011;32978;53.586;10.052;2023-11-21T09:15:13;9.27;;;8.43;;
47239;SDS011;32978;53.586;10.052;2023-11-21T09:20:11;9.77;;;8.77;;
47239;SDS011;32978;53.586;10.052;2023-11-21T09:25:07;10.57;;;9.52;;
47239;SDS011;32978;53.586;10.052;2023-11-21T09:30:05;14.15;;;9.05;;
47239;SDS011;32978;53.586;10.052;2023-11-21T09:35:01;9.57;;;8.57;;
47239;SDS011;32978;53.586;10.052;2023-11-21T09:39:58;12.27;;;8.50;;
47239;SDS011;32978;53.586;10.052;2023-11-21T09:45:03;9.90;;;7.40;;
47239;SDS011;32978;53.586;10.052;2023-11-21T09:50:02;7.90;;;7.10;;
47239;SDS011;32978;53.586;10.052;2023-11-21T09:54:58;8.40;;;7.47;;
47239;SDS011;32978;53.586;10.052;2023-11-21T09:59:56;8.77;;;7.88;;
47239;SDS011;32978;53.586;10.052;2023-11-21T10:04:58;9.60;;;7.35;;
47239;SDS011;32978;53.586;10.052;2023-11-21T10:09:56;10.27;;;7.43;;
47239;SDS011;32978;53.586;10.052;2023-11-21T10:14:53;8.35;;;7.50;;
47239;SDS011;32978;53.586;10.052;2023-11-21T10:19:50;8.82;;;7.28;;
47239;SDS011;32978;53.586;10.052;2023-11-21T10:24:47;11.57;;;7.50;;
47239;SDS011;32978;53.586;10.052;2023-11-21T10:34:55;8.30;;;6.53;;
47239;SDS011;32978;53.586;10.052;2023-11-21T10:39:55;7.85;;;5.95;;
47239;SDS011;32978;53.586;10.052;2023-11-21T10:44:53;6.70;;;6.03;;
47239;SDS011;32978;53.586;10.052;2023-11-21T10:49:49;9.57;;;6.82;;
47239;SDS011;32978;53.586;10.052;2023-11-21T10:54:46;7.90;;;5.85;;
47239;SDS011;32978;53.586;10.052;2023-11-21T10:59:43;7.07;;;5.75;;
47239;SDS011;32978;53.586;10.052;2023-11-21T11:04:42;6.50;;;5.70;;
47239;SDS011;32978;53.586;10.052;2023-11-21T11:09:38;9.90;;;6.15;;
47239;SDS011;32978;53.586;10.052;2023-11-21T11:14:35;11.80;;;6.15;;
47239;SDS011;32978;53.586;10.052;2023-11-21T11:19:31;6.68;;;6.05;;
47239;SDS011;32978;53.586;10.052;2023-11-21T11:39:49;7.13;;;5.68;;
47239;SDS011;32978;53.586;10.052;2023-11-21T11:44:49;10.15;;;5.38;;
47239;SDS011;32978;53.586;10.052;2023-11-21T11:50:00;7.15;;;5.18;;
47239;SDS011;32978;53.586;10.052;2023-11-21T11:55:00;6.95;;;5.68;;
47239;SDS011;32978;53.586;10.052;2023-11-21T12:05:23;8.75;;;6.10;;
47239;SDS011;32978;53.586;10.052;2023-11-21T12:10:26;10.35;;;5.93;;
47239;SDS011;32978;53.586;10.052;2023-11-21T12:15:23;6.35;;;5.63;;
47239;SDS011;32978;53.586;10.052;2023-11-21T12:20:21;9.20;;;5.97;;
47239;SDS011;32978;53.586;10.052;2023-11-21T12:25:21;7.63;;;5.32;;
47239;SDS011;32978;53.586;10.052;2023-11-21T12:30:19;6.57;;;5.95;;
47239;SDS011;32978;53.586;10.052;2023-11-21T12:35:18;6.72;;;5.63;;
47239;SDS011;32978;53.586;10.052;2023-11-21T12:40:18;6.18;;;5.55;;
47239;SDS011;32978;53.586;10.052;2023-11-21T12:50:12;9.45;;;5.47;;
47239;SDS011;32978;53.586;10.052;2023-11-21T12:55:10;7.82;;;5.22;;
47239;SDS011;32978;53.586;10.052;2023-11-21T13:00:15;5.88;;;5.32;;
47239;SDS011;32978;53.586;10.052;2023-11-21T13:05:26;6.82;;;5.60;;
47239;SDS011;32978;53.586;10.052;2023-11-21T13:10:23;7.40;;;5.47;;
47239;SDS011;32978;53.586;10.052;2023-11-21T13:15:23;6.82;;;5.82;;
47239;SDS011;32978;53.586;10.052;2023-11-21T13:20:19;10.38;;;5.50;;
47239;SDS011;32978;53.586;10.052;2023-11-21T13:25:16;7.90;;;5.80;;
47239;SDS011;32978;53.586;10.052;2023-11-21T13:30:16;8.50;;;5.90;;
47239;SDS011;32978;53.586;10.052;2023-11-21T13:35:13;7.65;;;6.60;;
47239;SDS011;32978;53.586;10.052;2023-11-21T13:40:16;8.65;;;6.00;;
47239;SDS011;32978;53.586;10.052;2023-11-21T13:45:18;6.60;;;5.93;;
47239;SDS011;32978;53.586;10.052;2023-11-21T13:50:17;7.18;;;6.00;;
47239;SDS011;32978;53.586;10.052;2023-11-21T13:55:20;7.43;;;5.68;;
47239;SDS011;32978;53.586;10.052;2023-11-21T14:00:20;6.47;;;5.45;;
47239;SDS011;32978;53.586;10.052;2023-11-21T14:05:35;6.88;;;5.47;;
47239;SDS011;32978;53.586;10.052;2023-11-21T14:10:32;6.50;;;5.90;;
47239;SDS011;32978;53.586;10.052;2023-11-21T14:15:36;7.93;;;5.70;;
47239;SDS011;32978;53.586;10.052;2023-11-21T14:20:42;6.75;;;6.05;;
47239;SDS011;32978;53.586;10.052;2023-11-21T14:25:39;7.35;;;6.22;;
47239;SDS011;32978;53.586;10.052;2023-11-21T14:30:36;8.98;;;5.75;;
47239;SDS011;32978;53.586;10.052;2023-11-21T14:35:32;6.35;;;5.65;;
47239;SDS011;32978;53.586;10.052;2023-11-21T14:40:29;8.30;;;5.90;;
47239;SDS011;32978;53.586;10.052;2023-11-21T14:45:29;5.72;;;5.20;;
47239;SDS011;32978;53.586;10.052;2023-11-21T14:50:33;6.53;;;5.65;;
47239;SDS011;32978;53.586;10.052;2023-11-21T15:00:44;8.38;;;5.72;;
47239;SDS011;32978;53.586;10.052;2023-11-21T15:05:41;6.20;;;5.40;;
47239;SDS011;32978;53.586;10.052;2023-11-21T15:10:37;7.45;;;5.47;;
47239;SDS011;32978;53.586;10.052;2023-11-21T15:15:45;7.05;;;6.18;;
47239;SDS011;32978;53.586;10.052;2023-11-21T15:20:44;7.13;;;5.95;;
47239;SDS011;32978;53.586;10.052;2023-11-21T15:25:40;5.80;;;5.25;;
47239;SDS011;32978;53.586;10.052;2023-11-21T15:30:36;7.22;;;6.25;;
47239;SDS011;32978;53.586;10.052;2023-11-21T15:35:33;6.90;;;5.90;;
47239;SDS011;32978;53.586;10.052;2023-11-21T15:40:34;7.25;;;5.88;;
47239;SDS011;32978;53.586;10.052;2023-11-21T15:45:30;8.80;;;6.03;;
47239;SDS011;32978;53.586;10.052;2023-11-21T15:50:26;6.90;;;6.20;;
47239;SDS011;32978;53.586;10.052;2023-11-21T15:55:23;6.25;;;5.70;;
47239;SDS011;32978;53.586;10.052;2023-11-21T16:00:19;7.38;;;6.20;;
47239;SDS011;32978;53.586;10.052;2023-11-21T16:05:18;7.13;;;6.28;;
47239;SDS011;32978;53.586;10.052;2023-11-21T16:10:14;7.65;;;6.93;;
47239;SDS011;32978;53.586;10.052;2023-11-21T16:15:12;7.13;;;6.28;;
47239;SDS011;32978;53.586;10.052;2023-11-21T16:20:08;7.90;;;6.28;;
47239;SDS011;32978;53.586;10.052;2023-11-21T16:25:12;7.13;;;6.20;;
47239;SDS011;32978;53.586;10.052;2023-11-21T16:30:10;7.78;;;6.95;;
47239;SDS011;32978;53.586;10.052;2023-11-21T16:35:07;12.57;;;6.65;;
47239;SDS011;32978;53.586;10.052;2023-11-21T16:40:05;8.15;;;7.05;;
47239;SDS011;32978;53.586;10.052;2023-11-21T16:45:05;8.02;;;6.95;;
47239;SDS011;32978;53.586;10.052;2023-11-21T16:50:02;9.07;;;6.82;;
47239;SDS011;32978;53.586;10.052;2023-11-21T16:54:59;7.88;;;6.50;;
47239;SDS011;32978;53.586;10.052;2023-11-21T16:59:56;7.68;;;6.53;;
47239;SDS011;32978;53.586;10.052;2023-11-21T17:04:52;9.48;;;6.43;;
47239;SDS011;32978;53.586;10.052;2023-11-21T17:09:49;8.50;;;6.60;;
47239;SDS011;32978;53.586;10.052;2023-11-21T17:14:45;6.60;;;5.85;;
47239;SDS011;32978;53.586;10.052;2023-11-21T17:19:44;6.97;;;5.35;;
47239;SDS011;32978;53.586;10.052;2023-11-21T17:24:41;6.18;;;4.80;;
47239;SDS011;32978;53.586;10.052;2023-11-21T17:29:39;8.07;;;5.38;;
47239;SDS011;32978;53.586;10.052;2023-11-21T17:34:35;6.20;;;5.20;;
47239;SDS011;32978;53.586;10.052;2023-11-21T17:39:32;7.78;;;5.25;;
47239;SDS011;32978;53.586;10.052;2023-11-21T17:44:28;6.82;;;5.25;;
47239;SDS011;32978;53.586;10.052;2023-11-21T17:49:24;6.57;;;5.07;;
47239;SDS011;32978;53.586;10.052;2023-11-21T17:54:23;5.80;;;4.78;;
47239;SDS011;32978;53.586;10.052;2023-11-21T17:59:19;7.70;;;5.20;;
47239;SDS011;32978;53.586;10.052;2023-11-21T18:04:16;5.63;;;4.88;;
47239;SDS011;32978;53.586;10.052;2023-11-21T18:09:12;6.18;;;5.32;;
47239;SDS011;32978;53.586;10.052;2023-11-21T18:14:11;6.75;;;4.68;;
47239;SDS011;32978;53.586;10.052;2023-11-21T18:19:09;5.70;;;4.63;;
47239;SDS011;32978;53.586;10.052;2023-11-21T18:24:06;4.95;;;4.43;;
47239;SDS011;32978;53.586;10.052;2023-11-21T18:29:03;5.90;;;4.80;;
47239;SDS011;32978;53.586;10.052;2023-11-21T18:34:00;5.97;;;4.78;;
47239;SDS011;32978;53.586;10.052;2023-11-21T18:38:56;5.50;;;4.78;;
47239;SDS011;32978;53.586;10.052;2023-11-21T18:43:52;6.95;;;5.07;;
47239;SDS011;32978;53.586;10.052;2023-11-21T18:48:50;7.57;;;4.25;;
47239;SDS011;32978;53.586;10.052;2023-11-21T18:53:48;5.78;;;4.82;;
47239;SDS011;32978;53.586;10.052;2023-11-21T18:58:44;5.75;;;4.80;;
47239;SDS011;32978;53.586;10.052;2023-11-21T19:03:44;8.13;;;5.30;;
47239;SDS011;32978;53.586;10.052;2023-11-21T19:08:43;6.15;;;5.25;;
47239;SDS011;32978;53.586;10.052;2023-11-21T19:13:43;7.63;;;5.35;;
47239;SDS011;32978;53.586;10.052;2023-11-21T19:18:43;6.20;;;5.00;;
47239;SDS011;32978;53.586;10.052;2023-11-21T19:23:39;6.32;;;5.10;;
47239;SDS011;32978;53.586;10.052;2023-11-21T19:28:38;6.47;;;4.80;;
47239;SDS011;32978;53.586;10.052;2023-11-21T19:33:38;9.13;;;5.50;;
47239;SDS011;32978;53.586;10.052;2023-11-21T19:38:35;6.47;;;4.93;;
47239;SDS011;32978;53.586;10.052;2023-11-21T19:43:32;5.72;;;4.57;;
47239;SDS011;32978;53.586;10.052;2023-11-21T19:48:28;6.10;;;5.13;;
47239;SDS011;32978;53.586;10.052;2023-11-21T19:53:24;6.63;;;5.63;;
47239;SDS011;32978;53.586;10.052;2023-11-21T19:58:21;6.85;;;5.10;;
47239;SDS011;32978;53.586;10.052;2023-11-21T20:09:02;7.00;;;5.13;;
47239;SDS011;32978;53.586;10.052;2023-11-21T20:14:15;6.20;;;5.18;;
47239;SDS011;32978;53.586;10.052;2023-11-21T20:19:48;5.45;;;4.43;;
47239;SDS011;32978;53.586;10.052;2023-11-21T20:24:44;8.73;;;5.18;;
47239;SDS011;32978;53.586;10.052;2023-11-21T20:30:24;8.55;;;5.40;;
47239;SDS011;32978;53.586;10.052;2023-11-21T20:35:24;5.43;;;4.75;;
47239;SDS011;32978;53.586;10.052;2023-11-21T20:40:41;5.15;;;4.38;;
47239;SDS011;32978;53.586;10.052;2023-11-21T20:45:57;6.07;;;4.47;;
47239;SDS011;32978;53.586;10.052;2023-11-21T20:51:30;5.47;;;4.60;;
47239;SDS011;32978;53.586;10.052;2023-11-21T20:56:28;7.20;;;4.88;;
47239;SDS011;32978;53.586;10.052;2023-11-21T21:01:25;7.85;;;4.70;;
47239;SDS011;32978;53.586;10.052;2023-11-21T21:06:21;5.43;;;4.25;;
47239;SDS011;32978;53.586;10.052;2023-11-21T21:11:18;4.93;;;4.25;;
47239;SDS011;32978;53.586;10.052;2023-11-21T21:16:16;5.93;;;4.57;;
47239;SDS011;32978;53.586;10.052;2023-11-21T21:21:12;5.65;;;5.05;;
47239;SDS011;32978;53.586;10.052;2023-11-21T21:26:09;5.80;;;4.63;;
47239;SDS011;32978;53.586;10.052;2023-11-21T21:31:07;8.10;;;4.38;;
47239;SDS011;32978;53.586;10.052;2023-11-21T21:36:03;5.72;;;4.40;;
47239;SDS011;32978;53.586;10.052;2023-11-21T21:41:00;4.75;;;4.13;;
47239;SDS011;32978;53.586;10.052;2023-11-21T21:45:57;10.52;;;4.63;;
47239;SDS011;32978;53.586;10.052;2023-11-21T21:50:53;5.53;;;4.20;;
47239;SDS011;32978;53.586;10.052;2023-11-21T21:55:49;5.60;;;4.03;;
47239;SDS011;32978;53.586;10.052;2023-11-21T22:00:49;6.20;;;4.32;;
47239;SDS011;32978;53.586;10.052;2023-11-21T22:05:45;6.00;;;4.30;;
47239;SDS011;32978;53.586;10.052;2023-11-21T22:10:41;5.47;;;4.65;;
47239;SDS011;32978;53.586;10.052;2023-11-21T22:15:37;7.55;;;4.57;;
47239;SDS011;32978;53.586;10.052;2023-11-21T22:20:34;5.15;;;4.53;;
47239;SDS011;32978;53.586;10.052;2023-11-21T22:25:31;6.60;;;4.13;;
47239;SDS011;32978;53.586;10.052;2023-11-21T22:30:27;7.18;;;4.80;;
47239;SDS011;32978;53.586;10.052;2023-11-21T22:35:24;5.13;;;4.53;;
47239;SDS011;32978;53.586;10.052;2023-11-21T22:40:20;6.25;;;4.47;;
47239;SDS011;32978;53.586;10.052;2023-11-21T22:45:16;5.88;;;4.53;;
47239;SDS011;32978;53.586;10.052;2023-11-21T22:50:14;4.60;;;3.70;;
47239;SDS011;32978;53.586;10.052;2023-11-21T22:55:10;9.52;;;4.85;;
47239;SDS011;32978;53.586;10.052;2023-11-21T23:00:07;5.07;;;4.25;;
47239;SDS011;32978;53.586;10.052;2023-11-21T23:05:10;5.45;;;4.57;;
47239;SDS011;32978;53.586;10.052;2023-11-21T23:10:07;5.43;;;4.47;;
47239;SDS011;32978;53.586;10.052;2023-11-21T23:15:05;5.57;;;4.20;;
47239;SDS011;32978;53.586;10.052;2023-11-21T23:20:03;4.97;;;4.47;;
47239;SDS011;32978;53.586;10.052;2023-11-21T23:25:05;7.95;;;4.95;;
47239;SDS011;32978;53.586;10.052;2023-11-21T23:30:02;5.53;;;4.70;;
47239;SDS011;32978;53.586;10.052;2023-11-21T23:34:58;6.60;;;4.78;;
47239;SDS011;32978;53.586;10.052;2023-11-21T23:39:55;9.23;;;4.93;;
47239;SDS011;32978;53.586;10.052;2023-11-21T23:44:51;5.32;;;4.70;;
47239;SDS011;32978;53.586;10.052;2023-11-21T23:49:49;7.60;;;5.35;;
47239;SDS011;32978;53.586;10.052;2023-11-21T23:54:45;6.97;;;5.13;;
47239;SDS011;32978;53.586;10.052;2023-11-21T23:59:41;6.00;;;5.05;;
